Hlavní strana
METAR-TAF:

METAR-TAF

Letiště :

Greer, Jižní Karolína, Spojené státy americké

zeměpisná šířka: 34-53-02N, zeměpisná délka: 082-13-15W, výška: 296 m

Aktuální stav počasí

Zpráva byla vytvořena před 33 minutami, v 10:53 UTC
Jihozápadní vítr 7 kt
Teplota 22°C
Vlhkost vzduchu 83%
Tlak 1021 hPa
Viditelnost: 12.9 km
Jasno

METAR: KGSP 241053Z 23007KT 8SM CLR 22/19 A3016 RMK AO2 SLP201 T02170194

Čas: 07:26 (11:26 UTC)

Předpověď počasí

Zpráva byla vytvořena před 5 hodinami a 56 minutami, v 05:30 UTC
Předpověď platná od 24 v 06 UTC do 25 v 06 UTC
Jihozápadní vítr 4 kt
Viditelnost: 10 km
Polojasno ve výšce 25000 ft
Od 24 v 1600 UTC
Západní vítr 7 kt
Viditelnost: 10 km
Skoro jasno ve výšce 6000 ft
Od 25 v 0000 UTC
Západní vítr 3 kt
Viditelnost: 10 km
Skoro jasno ve výšce 6000 ft
Od 25 v 0400 UTC
vítr z různých směrů 2 kt
Viditelnost: 10 km
Polojasno ve výšce 25000 ft

TAF: KGSP 240530Z 2406/2506 23004KT P6SM SCT250 FM241600 26007KT P6SM FEW060 FM250000 28003KT P6SM FEW060 FM250400 VRB02KT P6SM SCT250

Stav a předpovědi počasí z více než 4 000 letišť (zprávy METAR a TAF).

Červené a žluté tečky na mapě představují dostupné meteorologické stanice.

Když kurzor umístíte na tečku, zobrazí se název stanice.

Pak kliknutím zobrazíte stav a předpověď počasí.

Chcete-li změnit mapu, kliknutím na zelené tlačítko se znaménkem +mapu přiblížíte, kliknutím na zelené tlačítko se znaménkem – mapu oddálíte a kliknutím na zelené šipky přejdete na sousední mapy.


METAR-TAF: